sensor_id;sensor_type;location;lat;lon;timestamp;P1;durP1;ratioP1;P2;durP2;ratioP2
19183;SDS011;9724;51.194;6.856;2022-07-23T00:01:08;23.47;;;14.50;;
19183;SDS011;9724;51.194;6.856;2022-07-23T00:03:35;25.90;;;15.43;;
19183;SDS011;9724;51.194;6.856;2022-07-23T00:06:03;27.47;;;15.03;;
19183;SDS011;9724;51.194;6.856;2022-07-23T00:08:36;25.87;;;15.90;;
19183;SDS011;9724;51.194;6.856;2022-07-23T00:11:04;28.43;;;15.97;;
19183;SDS011;9724;51.194;6.856;2022-07-23T00:13:32;33.37;;;17.10;;
19183;SDS011;9724;51.194;6.856;2022-07-23T00:15:59;38.33;;;16.20;;
19183;SDS011;9724;51.194;6.856;2022-07-23T00:18:27;31.27;;;16.43;;
19183;SDS011;9724;51.194;6.856;2022-07-23T00:20:55;31.43;;;16.70;;
19183;SDS011;9724;51.194;6.856;2022-07-23T00:23:22;36.80;;;17.33;;
19183;SDS011;9724;51.194;6.856;2022-07-23T00:25:52;28.07;;;16.53;;
19183;SDS011;9724;51.194;6.856;2022-07-23T00:28:20;30.40;;;16.43;;
19183;SDS011;9724;51.194;6.856;2022-07-23T00:30:48;35.43;;;15.63;;
19183;SDS011;9724;51.194;6.856;2022-07-23T00:33:15;30.73;;;16.70;;
19183;SDS011;9724;51.194;6.856;2022-07-23T00:35:43;25.73;;;14.77;;
19183;SDS011;9724;51.194;6.856;2022-07-23T00:38:11;28.77;;;15.53;;
19183;SDS011;9724;51.194;6.856;2022-07-23T00:40:39;29.50;;;16.17;;
19183;SDS011;9724;51.194;6.856;2022-07-23T00:43:08;27.57;;;15.90;;
19183;SDS011;9724;51.194;6.856;2022-07-23T00:45:36;26.40;;;16.00;;
19183;SDS011;9724;51.194;6.856;2022-07-23T00:48:04;26.10;;;15.37;;
19183;SDS011;9724;51.194;6.856;2022-07-23T00:50:32;28.70;;;15.60;;
19183;SDS011;9724;51.194;6.856;2022-07-23T00:52:59;26.77;;;15.83;;
19183;SDS011;9724;51.194;6.856;2022-07-23T00:55:27;31.70;;;16.20;;
19183;SDS011;9724;51.194;6.856;2022-07-23T00:57:55;29.20;;;16.43;;
19183;SDS011;9724;51.194;6.856;2022-07-23T01:00:24;26.30;;;16.03;;
19183;SDS011;9724;51.194;6.856;2022-07-23T01:02:52;30.33;;;15.83;;
19183;SDS011;9724;51.194;6.856;2022-07-23T01:05:20;25.47;;;15.57;;
19183;SDS011;9724;51.194;6.856;2022-07-23T01:07:49;23.47;;;16.10;;
19183;SDS011;9724;51.194;6.856;2022-07-23T01:10:21;25.73;;;15.70;;
19183;SDS011;9724;51.194;6.856;2022-07-23T01:13:00;27.23;;;15.93;;
19183;SDS011;9724;51.194;6.856;2022-07-23T01:15:29;27.17;;;16.23;;
19183;SDS011;9724;51.194;6.856;2022-07-23T01:17:58;30.47;;;16.77;;
19183;SDS011;9724;51.194;6.856;2022-07-23T01:20:25;29.67;;;16.27;;
19183;SDS011;9724;51.194;6.856;2022-07-23T01:22:55;29.60;;;16.93;;
19183;SDS011;9724;51.194;6.856;2022-07-23T01:25:23;27.27;;;15.73;;
19183;SDS011;9724;51.194;6.856;2022-07-23T01:27:51;30.03;;;16.80;;
19183;SDS011;9724;51.194;6.856;2022-07-23T01:30:19;28.10;;;16.80;;
19183;SDS011;9724;51.194;6.856;2022-07-23T01:32:47;26.57;;;16.00;;
19183;SDS011;9724;51.194;6.856;2022-07-23T01:35:15;33.93;;;17.83;;
19183;SDS011;9724;51.194;6.856;2022-07-23T01:37:42;31.10;;;18.17;;
19183;SDS011;9724;51.194;6.856;2022-07-23T01:40:11;27.83;;;17.10;;
19183;SDS011;9724;51.194;6.856;2022-07-23T01:42:39;33.40;;;17.23;;
19183;SDS011;9724;51.194;6.856;2022-07-23T01:45:07;28.83;;;17.37;;
19183;SDS011;9724;51.194;6.856;2022-07-23T01:47:36;27.63;;;17.03;;
19183;SDS011;9724;51.194;6.856;2022-07-23T01:50:04;26.87;;;17.00;;
19183;SDS011;9724;51.194;6.856;2022-07-23T01:52:32;26.63;;;16.73;;
19183;SDS011;9724;51.194;6.856;2022-07-23T01:55:00;28.17;;;17.30;;
19183;SDS011;9724;51.194;6.856;2022-07-23T01:57:29;30.37;;;17.30;;
19183;SDS011;9724;51.194;6.856;2022-07-23T01:59:57;29.30;;;16.83;;
19183;SDS011;9724;51.194;6.856;2022-07-23T02:02:25;28.70;;;17.07;;
19183;SDS011;9724;51.194;6.856;2022-07-23T02:04:53;27.47;;;16.97;;
19183;SDS011;9724;51.194;6.856;2022-07-23T02:07:20;25.40;;;17.03;;
19183;SDS011;9724;51.194;6.856;2022-07-23T02:09:48;24.57;;;15.47;;
19183;SDS011;9724;51.194;6.856;2022-07-23T02:12:16;24.40;;;16.60;;
19183;SDS011;9724;51.194;6.856;2022-07-23T02:14:45;25.27;;;15.60;;
19183;SDS011;9724;51.194;6.856;2022-07-23T02:17:12;24.33;;;14.77;;
19183;SDS011;9724;51.194;6.856;2022-07-23T02:19:40;26.00;;;16.13;;
19183;SDS011;9724;51.194;6.856;2022-07-23T02:22:08;25.30;;;16.13;;
19183;SDS011;9724;51.194;6.856;2022-07-23T02:24:36;25.47;;;16.50;;
19183;SDS011;9724;51.194;6.856;2022-07-23T02:27:03;28.63;;;16.33;;
19183;SDS011;9724;51.194;6.856;2022-07-23T02:29:31;25.10;;;16.13;;
19183;SDS011;9724;51.194;6.856;2022-07-23T02:32:00;27.03;;;15.53;;
19183;SDS011;9724;51.194;6.856;2022-07-23T02:34:28;24.80;;;16.07;;
19183;SDS011;9724;51.194;6.856;2022-07-23T02:36:56;23.17;;;15.07;;
19183;SDS011;9724;51.194;6.856;2022-07-23T02:39:23;25.20;;;16.13;;
19183;SDS011;9724;51.194;6.856;2022-07-23T02:41:51;23.10;;;15.17;;
19183;SDS011;9724;51.194;6.856;2022-07-23T02:44:19;24.67;;;14.50;;
19183;SDS011;9724;51.194;6.856;2022-07-23T02:46:46;23.40;;;14.93;;
19183;SDS011;9724;51.194;6.856;2022-07-23T02:49:16;22.17;;;14.47;;
19183;SDS011;9724;51.194;6.856;2022-07-23T02:51:43;23.07;;;14.87;;
19183;SDS011;9724;51.194;6.856;2022-07-23T02:54:11;25.27;;;15.20;;
19183;SDS011;9724;51.194;6.856;2022-07-23T02:56:38;26.07;;;14.27;;
19183;SDS011;9724;51.194;6.856;2022-07-23T02:59:06;24.23;;;14.87;;
19183;SDS011;9724;51.194;6.856;2022-07-23T03:01:34;25.13;;;14.73;;
19183;SDS011;9724;51.194;6.856;2022-07-23T03:04:02;25.70;;;15.47;;
19183;SDS011;9724;51.194;6.856;2022-07-23T03:06:32;25.17;;;14.43;;
19183;SDS011;9724;51.194;6.856;2022-07-23T03:08:59;22.73;;;15.07;;
19183;SDS011;9724;51.194;6.856;2022-07-23T03:11:28;20.70;;;14.20;;
19183;SDS011;9724;51.194;6.856;2022-07-23T03:13:56;27.50;;;14.77;;
19183;SDS011;9724;51.194;6.856;2022-07-23T03:16:23;28.53;;;15.63;;
19183;SDS011;9724;51.194;6.856;2022-07-23T03:18:51;24.10;;;15.33;;
19183;SDS011;9724;51.194;6.856;2022-07-23T03:21:19;26.70;;;15.43;;
19183;SDS011;9724;51.194;6.856;2022-07-23T03:23:48;22.57;;;14.90;;
19183;SDS011;9724;51.194;6.856;2022-07-23T03:26:15;27.87;;;15.33;;
19183;SDS011;9724;51.194;6.856;2022-07-23T03:28:43;25.60;;;15.07;;
19183;SDS011;9724;51.194;6.856;2022-07-23T03:31:11;24.23;;;14.70;;
19183;SDS011;9724;51.194;6.856;2022-07-23T03:33:39;24.07;;;14.40;;
19183;SDS011;9724;51.194;6.856;2022-07-23T03:36:07;25.73;;;15.90;;
19183;SDS011;9724;51.194;6.856;2022-07-23T03:38:36;22.67;;;14.40;;
19183;SDS011;9724;51.194;6.856;2022-07-23T03:41:05;21.60;;;14.20;;
19183;SDS011;9724;51.194;6.856;2022-07-23T03:43:33;23.17;;;14.37;;
19183;SDS011;9724;51.194;6.856;2022-07-23T03:46:00;29.27;;;15.87;;
19183;SDS011;9724;51.194;6.856;2022-07-23T03:48:28;26.90;;;14.90;;
19183;SDS011;9724;51.194;6.856;2022-07-23T03:50:56;25.67;;;14.67;;
19183;SDS011;9724;51.194;6.856;2022-07-23T03:53:24;22.37;;;13.43;;
19183;SDS011;9724;51.194;6.856;2022-07-23T03:55:52;27.00;;;15.27;;
19183;SDS011;9724;51.194;6.856;2022-07-23T03:58:21;24.20;;;15.37;;
19183;SDS011;9724;51.194;6.856;2022-07-23T04:00:48;35.13;;;16.10;;
19183;SDS011;9724;51.194;6.856;2022-07-23T04:03:16;29.40;;;15.77;;
19183;SDS011;9724;51.194;6.856;2022-07-23T04:05:44;25.03;;;15.33;;
19183;SDS011;9724;51.194;6.856;2022-07-23T04:08:11;24.57;;;14.90;;
19183;SDS011;9724;51.194;6.856;2022-07-23T04:10:39;25.63;;;15.40;;
19183;SDS011;9724;51.194;6.856;2022-07-23T04:13:07;23.80;;;14.53;;
19183;SDS011;9724;51.194;6.856;2022-07-23T04:15:36;26.07;;;15.83;;
19183;SDS011;9724;51.194;6.856;2022-07-23T04:18:04;25.80;;;15.47;;
19183;SDS011;9724;51.194;6.856;2022-07-23T04:20:32;31.47;;;15.93;;
19183;SDS011;9724;51.194;6.856;2022-07-23T04:23:06;26.33;;;16.13;;
19183;SDS011;9724;51.194;6.856;2022-07-23T04:25:33;29.37;;;16.90;;
19183;SDS011;9724;51.194;6.856;2022-07-23T04:28:01;33.53;;;17.33;;
19183;SDS011;9724;51.194;6.856;2022-07-23T04:30:29;29.33;;;17.20;;
19183;SDS011;9724;51.194;6.856;2022-07-23T04:32:58;35.63;;;18.47;;
19183;SDS011;9724;51.194;6.856;2022-07-23T04:35:26;33.00;;;16.27;;
19183;SDS011;9724;51.194;6.856;2022-07-23T04:37:54;27.20;;;15.30;;
19183;SDS011;9724;51.194;6.856;2022-07-23T04:40:22;35.27;;;16.37;;
19183;SDS011;9724;51.194;6.856;2022-07-23T04:42:49;29.70;;;17.53;;
19183;SDS011;9724;51.194;6.856;2022-07-23T04:45:17;35.07;;;16.83;;
19183;SDS011;9724;51.194;6.856;2022-07-23T04:47:45;34.27;;;16.73;;
19183;SDS011;9724;51.194;6.856;2022-07-23T04:50:14;35.03;;;17.57;;
19183;SDS011;9724;51.194;6.856;2022-07-23T04:52:44;39.80;;;17.73;;
19183;SDS011;9724;51.194;6.856;2022-07-23T04:55:12;31.83;;;17.53;;
19183;SDS011;9724;51.194;6.856;2022-07-23T04:57:40;28.80;;;16.70;;
19183;SDS011;9724;51.194;6.856;2022-07-23T05:00:08;31.00;;;17.17;;
19183;SDS011;9724;51.194;6.856;2022-07-23T05:02:36;33.17;;;18.13;;
19183;SDS011;9724;51.194;6.856;2022-07-23T05:05:05;30.10;;;18.50;;
19183;SDS011;9724;51.194;6.856;2022-07-23T05:07:34;31.40;;;18.27;;
19183;SDS011;9724;51.194;6.856;2022-07-23T05:10:02;30.60;;;17.50;;
19183;SDS011;9724;51.194;6.856;2022-07-23T05:12:30;30.13;;;17.50;;
19183;SDS011;9724;51.194;6.856;2022-07-23T05:14:58;31.57;;;16.23;;
19183;SDS011;9724;51.194;6.856;2022-07-23T05:17:26;33.60;;;16.63;;
19183;SDS011;9724;51.194;6.856;2022-07-23T05:19:54;28.23;;;16.30;;
19183;SDS011;9724;51.194;6.856;2022-07-23T05:22:26;28.17;;;15.67;;
19183;SDS011;9724;51.194;6.856;2022-07-23T05:24:55;24.13;;;16.07;;
19183;SDS011;9724;51.194;6.856;2022-07-23T05:27:22;23.67;;;15.20;;
19183;SDS011;9724;51.194;6.856;2022-07-23T05:29:50;21.30;;;14.90;;
19183;SDS011;9724;51.194;6.856;2022-07-23T05:32:18;21.07;;;14.80;;
19183;SDS011;9724;51.194;6.856;2022-07-23T05:34:45;23.93;;;14.30;;
19183;SDS011;9724;51.194;6.856;2022-07-23T05:37:13;22.43;;;14.30;;
19183;SDS011;9724;51.194;6.856;2022-07-23T05:39:41;20.73;;;13.63;;
19183;SDS011;9724;51.194;6.856;2022-07-23T05:42:10;25.30;;;13.80;;
19183;SDS011;9724;51.194;6.856;2022-07-23T05:44:37;20.07;;;12.63;;
19183;SDS011;9724;51.194;6.856;2022-07-23T05:47:05;18.13;;;12.60;;
19183;SDS011;9724;51.194;6.856;2022-07-23T05:49:33;19.83;;;13.17;;
19183;SDS011;9724;51.194;6.856;2022-07-23T05:52:03;19.20;;;12.77;;
19183;SDS011;9724;51.194;6.856;2022-07-23T05:54:31;22.83;;;13.53;;
19183;SDS011;9724;51.194;6.856;2022-07-23T05:56:58;18.20;;;13.53;;
19183;SDS011;9724;51.194;6.856;2022-07-23T05:59:28;20.17;;;13.90;;
19183;SDS011;9724;51.194;6.856;2022-07-23T06:01:56;23.37;;;13.53;;
19183;SDS011;9724;51.194;6.856;2022-07-23T06:04:23;25.93;;;13.60;;
19183;SDS011;9724;51.194;6.856;2022-07-23T06:06:51;22.00;;;13.13;;
19183;SDS011;9724;51.194;6.856;2022-07-23T06:09:19;19.47;;;12.80;;
19183;SDS011;9724;51.194;6.856;2022-07-23T06:11:47;19.07;;;13.77;;
19183;SDS011;9724;51.194;6.856;2022-07-23T06:14:14;21.23;;;13.70;;
19183;SDS011;9724;51.194;6.856;2022-07-23T06:16:43;20.10;;;13.53;;
19183;SDS011;9724;51.194;6.856;2022-07-23T06:19:11;17.57;;;13.13;;
19183;SDS011;9724;51.194;6.856;2022-07-23T06:21:39;20.90;;;13.70;;
19183;SDS011;9724;51.194;6.856;2022-07-23T06:24:13;21.20;;;13.23;;
19183;SDS011;9724;51.194;6.856;2022-07-23T06:26:40;21.20;;;14.03;;
19183;SDS011;9724;51.194;6.856;2022-07-23T06:29:08;24.20;;;14.17;;
19183;SDS011;9724;51.194;6.856;2022-07-23T06:31:36;20.40;;;13.47;;
19183;SDS011;9724;51.194;6.856;2022-07-23T06:34:05;25.63;;;14.83;;
19183;SDS011;9724;51.194;6.856;2022-07-23T06:36:32;19.53;;;13.83;;
19183;SDS011;9724;51.194;6.856;2022-07-23T06:39:01;19.97;;;14.07;;
19183;SDS011;9724;51.194;6.856;2022-07-23T06:41:30;16.90;;;12.97;;
19183;SDS011;9724;51.194;6.856;2022-07-23T06:43:58;23.43;;;13.67;;
19183;SDS011;9724;51.194;6.856;2022-07-23T06:46:26;25.67;;;13.70;;
19183;SDS011;9724;51.194;6.856;2022-07-23T06:48:53;23.40;;;14.97;;
19183;SDS011;9724;51.194;6.856;2022-07-23T06:51:23;22.97;;;13.93;;
19183;SDS011;9724;51.194;6.856;2022-07-23T06:53:50;23.10;;;13.33;;
19183;SDS011;9724;51.194;6.856;2022-07-23T06:56:18;23.23;;;13.83;;
19183;SDS011;9724;51.194;6.856;2022-07-23T06:58:46;23.17;;;13.80;;
19183;SDS011;9724;51.194;6.856;2022-07-23T07:01:13;18.80;;;12.77;;
19183;SDS011;9724;51.194;6.856;2022-07-23T07:03:41;18.60;;;12.20;;
19183;SDS011;9724;51.194;6.856;2022-07-23T07:06:09;21.20;;;13.47;;
19183;SDS011;9724;51.194;6.856;2022-07-23T07:08:38;21.50;;;13.07;;
19183;SDS011;9724;51.194;6.856;2022-07-23T07:11:06;22.23;;;13.43;;
19183;SDS011;9724;51.194;6.856;2022-07-23T07:13:35;24.90;;;14.73;;
19183;SDS011;9724;51.194;6.856;2022-07-23T07:16:03;21.73;;;13.33;;
19183;SDS011;9724;51.194;6.856;2022-07-23T07:18:31;21.10;;;13.17;;
19183;SDS011;9724;51.194;6.856;2022-07-23T07:20:59;23.60;;;14.13;;
19183;SDS011;9724;51.194;6.856;2022-07-23T07:23:27;23.57;;;13.60;;
19183;SDS011;9724;51.194;6.856;2022-07-23T07:25:56;20.90;;;12.60;;
19183;SDS011;9724;51.194;6.856;2022-07-23T07:28:23;22.93;;;13.43;;
19183;SDS011;9724;51.194;6.856;2022-07-23T07:30:51;21.17;;;13.67;;
19183;SDS011;9724;51.194;6.856;2022-07-23T07:33:19;22.47;;;13.43;;
19183;SDS011;9724;51.194;6.856;2022-07-23T07:35:47;21.60;;;13.50;;
19183;SDS011;9724;51.194;6.856;2022-07-23T07:38:15;24.40;;;14.07;;
19183;SDS011;9724;51.194;6.856;2022-07-23T07:40:42;25.37;;;13.27;;
19183;SDS011;9724;51.194;6.856;2022-07-23T07:43:11;29.23;;;15.17;;
19183;SDS011;9724;51.194;6.856;2022-07-23T07:45:39;26.47;;;14.40;;
19183;SDS011;9724;51.194;6.856;2022-07-23T07:48:07;25.10;;;15.40;;
19183;SDS011;9724;51.194;6.856;2022-07-23T07:50:34;31.57;;;15.07;;
19183;SDS011;9724;51.194;6.856;2022-07-23T07:53:02;25.20;;;15.40;;
19183;SDS011;9724;51.194;6.856;2022-07-23T07:55:30;32.03;;;15.97;;
19183;SDS011;9724;51.194;6.856;2022-07-23T07:57:58;33.93;;;18.17;;
19183;SDS011;9724;51.194;6.856;2022-07-23T08:00:29;30.50;;;17.73;;
19183;SDS011;9724;51.194;6.856;2022-07-23T08:02:58;35.70;;;19.53;;
19183;SDS011;9724;51.194;6.856;2022-07-23T08:05:29;37.77;;;21.50;;
19183;SDS011;9724;51.194;6.856;2022-07-23T08:07:57;38.00;;;21.20;;
19183;SDS011;9724;51.194;6.856;2022-07-23T08:10:26;35.90;;;20.20;;
19183;SDS011;9724;51.194;6.856;2022-07-23T08:12:55;38.47;;;22.07;;
19183;SDS011;9724;51.194;6.856;2022-07-23T08:15:24;35.00;;;22.17;;
19183;SDS011;9724;51.194;6.856;2022-07-23T08:17:54;35.83;;;21.53;;
19183;SDS011;9724;51.194;6.856;2022-07-23T08:20:23;32.83;;;21.03;;
19183;SDS011;9724;51.194;6.856;2022-07-23T08:22:54;23.87;;;16.97;;
19183;SDS011;9724;51.194;6.856;2022-07-23T08:25:24;26.77;;;17.40;;
19183;SDS011;9724;51.194;6.856;2022-07-23T08:27:52;27.20;;;17.73;;
19183;SDS011;9724;51.194;6.856;2022-07-23T08:30:20;27.03;;;15.87;;
19183;SDS011;9724;51.194;6.856;2022-07-23T08:32:52;22.23;;;14.60;;
19183;SDS011;9724;51.194;6.856;2022-07-23T08:35:24;26.40;;;17.33;;
19183;SDS011;9724;51.194;6.856;2022-07-23T08:37:52;30.03;;;18.27;;
19183;SDS011;9724;51.194;6.856;2022-07-23T08:40:20;28.03;;;19.43;;
19183;SDS011;9724;51.194;6.856;2022-07-23T08:42:49;27.10;;;18.47;;
19183;SDS011;9724;51.194;6.856;2022-07-23T08:45:18;21.60;;;16.50;;
19183;SDS011;9724;51.194;6.856;2022-07-23T08:47:48;25.13;;;15.83;;
19183;SDS011;9724;51.194;6.856;2022-07-23T08:50:20;27.77;;;19.33;;
19183;SDS011;9724;51.194;6.856;2022-07-23T08:52:48;26.37;;;17.97;;
19183;SDS011;9724;51.194;6.856;2022-07-23T08:55:17;24.30;;;17.23;;
19183;SDS011;9724;51.194;6.856;2022-07-23T08:57:47;22.53;;;17.47;;
19183;SDS011;9724;51.194;6.856;2022-07-23T09:00:16;28.87;;;18.27;;
19183;SDS011;9724;51.194;6.856;2022-07-23T09:02:44;25.23;;;17.03;;
19183;SDS011;9724;51.194;6.856;2022-07-23T09:05:13;25.97;;;17.40;;
19183;SDS011;9724;51.194;6.856;2022-07-23T09:10:43;23.20;;;16.10;;
19183;SDS011;9724;51.194;6.856;2022-07-23T09:13:25;25.97;;;16.43;;
19183;SDS011;9724;51.194;6.856;2022-07-23T09:15:56;17.97;;;14.20;;
19183;SDS011;9724;51.194;6.856;2022-07-23T09:18:29;29.77;;;14.40;;
19183;SDS011;9724;51.194;6.856;2022-07-23T09:21:12;24.27;;;17.00;;
19183;SDS011;9724;51.194;6.856;2022-07-23T09:23:53;24.70;;;17.90;;
19183;SDS011;9724;51.194;6.856;2022-07-23T09:26:24;18.37;;;14.23;;
19183;SDS011;9724;51.194;6.856;2022-07-23T09:28:58;18.57;;;13.70;;
19183;SDS011;9724;51.194;6.856;2022-07-23T09:31:30;20.67;;;14.40;;
19183;SDS011;9724;51.194;6.856;2022-07-23T09:34:07;21.57;;;13.53;;
19183;SDS011;9724;51.194;6.856;2022-07-23T09:36:36;24.07;;;14.77;;
19183;SDS011;9724;51.194;6.856;2022-07-23T09:39:05;21.17;;;14.03;;
19183;SDS011;9724;51.194;6.856;2022-07-23T09:41:34;20.73;;;14.27;;
19183;SDS011;9724;51.194;6.856;2022-07-23T09:44:11;16.93;;;13.10;;
19183;SDS011;9724;51.194;6.856;2022-07-23T09:46:40;19.87;;;13.57;;
19183;SDS011;9724;51.194;6.856;2022-07-23T09:49:17;18.90;;;13.37;;
19183;SDS011;9724;51.194;6.856;2022-07-23T09:51:47;19.90;;;14.53;;
19183;SDS011;9724;51.194;6.856;2022-07-23T09:54:23;22.63;;;14.70;;
19183;SDS011;9724;51.194;6.856;2022-07-23T09:56:52;23.87;;;13.97;;
19183;SDS011;9724;51.194;6.856;2022-07-23T09:59:22;19.30;;;14.70;;
19183;SDS011;9724;51.194;6.856;2022-07-23T10:01:51;19.20;;;14.27;;
19183;SDS011;9724;51.194;6.856;2022-07-23T10:04:20;15.30;;;11.77;;
19183;SDS011;9724;51.194;6.856;2022-07-23T10:06:51;23.57;;;10.23;;
19183;SDS011;9724;51.194;6.856;2022-07-23T10:09:26;15.20;;;10.63;;
19183;SDS011;9724;51.194;6.856;2022-07-23T10:11:55;21.00;;;11.30;;
19183;SDS011;9724;51.194;6.856;2022-07-23T10:14:56;21.83;;;12.57;;
19183;SDS011;9724;51.194;6.856;2022-07-23T10:17:24;14.60;;;10.77;;
19183;SDS011;9724;51.194;6.856;2022-07-23T10:19:52;17.93;;;12.07;;
19183;SDS011;9724;51.194;6.856;2022-07-23T10:22:20;16.10;;;10.57;;
19183;SDS011;9724;51.194;6.856;2022-07-23T10:24:53;16.83;;;10.63;;
19183;SDS011;9724;51.194;6.856;2022-07-23T10:27:30;17.53;;;10.73;;
19183;SDS011;9724;51.194;6.856;2022-07-23T10:30:09;12.03;;;9.40;;
19183;SDS011;9724;51.194;6.856;2022-07-23T10:32:42;14.60;;;9.30;;
19183;SDS011;9724;51.194;6.856;2022-07-23T10:35:16;14.37;;;9.43;;
19183;SDS011;9724;51.194;6.856;2022-07-23T10:37:49;16.00;;;9.40;;
19183;SDS011;9724;51.194;6.856;2022-07-23T10:40:19;13.73;;;8.93;;
19183;SDS011;9724;51.194;6.856;2022-07-23T10:42:48;16.40;;;9.30;;
19183;SDS011;9724;51.194;6.856;2022-07-23T10:45:25;9.97;;;6.13;;
19183;SDS011;9724;51.194;6.856;2022-07-23T10:47:55;4.80;;;4.40;;
19183;SDS011;9724;51.194;6.856;2022-07-23T10:50:24;10.13;;;6.57;;
19183;SDS011;9724;51.194;6.856;2022-07-23T10:53:12;11.53;;;6.10;;
19183;SDS011;9724;51.194;6.856;2022-07-23T10:55:49;14.40;;;7.03;;
19183;SDS011;9724;51.194;6.856;2022-07-23T10:58:19;8.63;;;6.30;;
19183;SDS011;9724;51.194;6.856;2022-07-23T11:00:51;12.00;;;5.60;;
19183;SDS011;9724;51.194;6.856;2022-07-23T11:03:29;7.53;;;4.83;;
19183;SDS011;9724;51.194;6.856;2022-07-23T11:05:59;8.47;;;4.63;;
19183;SDS011;9724;51.194;6.856;2022-07-23T11:08:27;8.10;;;4.80;;
19183;SDS011;9724;51.194;6.856;2022-07-23T11:11:07;8.83;;;4.60;;
19183;SDS011;9724;51.194;6.856;2022-07-23T11:13:46;7.23;;;4.20;;
19183;SDS011;9724;51.194;6.856;2022-07-23T11:16:21;10.10;;;5.10;;
19183;SDS011;9724;51.194;6.856;2022-07-23T11:18:54;10.13;;;4.47;;
19183;SDS011;9724;51.194;6.856;2022-07-23T11:21:42;7.27;;;4.47;;
19183;SDS011;9724;51.194;6.856;2022-07-23T11:24:20;8.00;;;4.23;;
19183;SDS011;9724;51.194;6.856;2022-07-23T11:26:52;10.83;;;3.93;;
19183;SDS011;9724;51.194;6.856;2022-07-23T11:37:49;8.47;;;3.90;;
19183;SDS011;9724;51.194;6.856;2022-07-23T11:40:20;7.83;;;4.00;;
19183;SDS011;9724;51.194;6.856;2022-07-23T11:42:53;6.00;;;3.40;;
19183;SDS011;9724;51.194;6.856;2022-07-23T11:45:23;7.07;;;3.83;;
19183;SDS011;9724;51.194;6.856;2022-07-23T11:47:51;6.83;;;3.97;;
19183;SDS011;9724;51.194;6.856;2022-07-23T11:50:22;5.40;;;3.37;;
19183;SDS011;9724;51.194;6.856;2022-07-23T11:52:50;8.00;;;3.73;;
19183;SDS011;9724;51.194;6.856;2022-07-23T11:55:18;8.93;;;4.00;;
19183;SDS011;9724;51.194;6.856;2022-07-23T11:57:46;5.17;;;3.73;;
19183;SDS011;9724;51.194;6.856;2022-07-23T12:00:16;5.60;;;3.90;;
19183;SDS011;9724;51.194;6.856;2022-07-23T12:02:47;7.27;;;3.73;;
19183;SDS011;9724;51.194;6.856;2022-07-23T12:05:16;10.63;;;3.67;;
19183;SDS011;9724;51.194;6.856;2022-07-23T12:07:45;4.23;;;3.50;;
19183;SDS011;9724;51.194;6.856;2022-07-23T12:10:16;7.57;;;3.80;;
19183;SDS011;9724;51.194;6.856;2022-07-23T12:12:46;5.20;;;3.17;;
19183;SDS011;9724;51.194;6.856;2022-07-23T12:15:17;6.20;;;3.43;;
19183;SDS011;9724;51.194;6.856;2022-07-23T12:17:47;4.90;;;3.20;;
19183;SDS011;9724;51.194;6.856;2022-07-23T12:20:18;8.03;;;3.50;;
19183;SDS011;9724;51.194;6.856;2022-07-23T12:22:48;8.93;;;3.60;;
19183;SDS011;9724;51.194;6.856;2022-07-23T12:25:17;6.33;;;4.03;;
19183;SDS011;9724;51.194;6.856;2022-07-23T12:27:46;6.00;;;3.83;;
19183;SDS011;9724;51.194;6.856;2022-07-23T12:30:26;6.97;;;3.93;;
19183;SDS011;9724;51.194;6.856;2022-07-23T12:32:59;10.27;;;4.07;;
19183;SDS011;9724;51.194;6.856;2022-07-23T12:35:31;5.60;;;3.90;;
19183;SDS011;9724;51.194;6.856;2022-07-23T12:38:02;5.60;;;3.50;;
19183;SDS011;9724;51.194;6.856;2022-07-23T12:40:32;10.20;;;4.60;;
19183;SDS011;9724;51.194;6.856;2022-07-23T12:43:02;6.70;;;4.60;;
19183;SDS011;9724;51.194;6.856;2022-07-23T12:45:43;6.13;;;3.90;;
19183;SDS011;9724;51.194;6.856;2022-07-23T12:48:16;11.20;;;4.60;;
19183;SDS011;9724;51.194;6.856;2022-07-23T12:50:51;9.73;;;4.50;;
19183;SDS011;9724;51.194;6.856;2022-07-23T12:53:24;7.27;;;3.70;;
19183;SDS011;9724;51.194;6.856;2022-07-23T12:55:57;8.50;;;3.93;;
19183;SDS011;9724;51.194;6.856;2022-07-23T12:58:46;5.23;;;3.70;;
19183;SDS011;9724;51.194;6.856;2022-07-23T13:01:28;5.53;;;3.53;;
19183;SDS011;9724;51.194;6.856;2022-07-23T13:04:01;4.47;;;3.50;;
19183;SDS011;9724;51.194;6.856;2022-07-23T13:06:38;4.97;;;2.83;;
19183;SDS011;9724;51.194;6.856;2022-07-23T13:09:07;4.47;;;2.87;;
19183;SDS011;9724;51.194;6.856;2022-07-23T13:11:37;6.77;;;3.60;;
19183;SDS011;9724;51.194;6.856;2022-07-23T13:14:06;7.17;;;3.40;;
19183;SDS011;9724;51.194;6.856;2022-07-23T13:16:36;4.43;;;3.73;;
19183;SDS011;9724;51.194;6.856;2022-07-23T13:19:04;7.70;;;3.40;;
19183;SDS011;9724;51.194;6.856;2022-07-23T13:21:38;4.63;;;3.57;;
19183;SDS011;9724;51.194;6.856;2022-07-23T13:24:06;5.33;;;3.37;;
19183;SDS011;9724;51.194;6.856;2022-07-23T13:26:35;4.93;;;3.33;;
19183;SDS011;9724;51.194;6.856;2022-07-23T13:29:03;4.67;;;3.27;;
19183;SDS011;9724;51.194;6.856;2022-07-23T13:31:36;4.70;;;3.30;;
19183;SDS011;9724;51.194;6.856;2022-07-23T13:34:05;3.30;;;2.80;;
19183;SDS011;9724;51.194;6.856;2022-07-23T13:36:33;5.13;;;3.30;;
19183;SDS011;9724;51.194;6.856;2022-07-23T13:39:01;5.33;;;3.30;;
19183;SDS011;9724;51.194;6.856;2022-07-23T13:41:30;5.03;;;3.00;;
19183;SDS011;9724;51.194;6.856;2022-07-23T13:43:58;4.30;;;3.40;;
19183;SDS011;9724;51.194;6.856;2022-07-23T13:46:28;4.23;;;3.00;;
19183;SDS011;9724;51.194;6.856;2022-07-23T13:48:57;4.90;;;3.10;;
19183;SDS011;9724;51.194;6.856;2022-07-23T13:51:25;2.93;;;2.53;;
19183;SDS011;9724;51.194;6.856;2022-07-23T13:53:54;3.77;;;2.40;;
19183;SDS011;9724;51.194;6.856;2022-07-23T13:56:25;2.63;;;2.40;;
19183;SDS011;9724;51.194;6.856;2022-07-23T13:58:53;5.67;;;2.70;;
19183;SDS011;9724;51.194;6.856;2022-07-23T14:01:22;4.73;;;2.73;;
19183;SDS011;9724;51.194;6.856;2022-07-23T14:03:50;5.57;;;3.00;;
19183;SDS011;9724;51.194;6.856;2022-07-23T14:06:20;3.67;;;2.90;;
19183;SDS011;9724;51.194;6.856;2022-07-23T14:08:58;3.17;;;2.57;;
19183;SDS011;9724;51.194;6.856;2022-07-23T14:11:26;2.50;;;2.40;;
19183;SDS011;9724;51.194;6.856;2022-07-23T14:13:56;4.17;;;2.60;;
19183;SDS011;9724;51.194;6.856;2022-07-23T14:16:24;4.87;;;2.80;;
19183;SDS011;9724;51.194;6.856;2022-07-23T14:18:52;3.27;;;2.53;;
19183;SDS011;9724;51.194;6.856;2022-07-23T14:21:21;2.80;;;2.60;;
19183;SDS011;9724;51.194;6.856;2022-07-23T14:23:50;2.73;;;2.30;;
19183;SDS011;9724;51.194;6.856;2022-07-23T14:26:19;3.37;;;2.57;;
19183;SDS011;9724;51.194;6.856;2022-07-23T14:28:46;4.00;;;2.37;;
19183;SDS011;9724;51.194;6.856;2022-07-23T14:31:14;2.93;;;2.67;;
19183;SDS011;9724;51.194;6.856;2022-07-23T14:33:46;4.87;;;2.70;;
19183;SDS011;9724;51.194;6.856;2022-07-23T14:36:14;5.83;;;2.93;;
19183;SDS011;9724;51.194;6.856;2022-07-23T14:38:44;2.45;;;2.30;;
19183;SDS011;9724;51.194;6.856;2022-07-23T14:41:11;3.97;;;2.57;;
19183;SDS011;9724;51.194;6.856;2022-07-23T14:43:41;7.27;;;3.30;;
19183;SDS011;9724;51.194;6.856;2022-07-23T14:46:10;2.50;;;2.30;;
19183;SDS011;9724;51.194;6.856;2022-07-23T14:48:38;5.67;;;2.83;;
19183;SDS011;9724;51.194;6.856;2022-07-23T14:51:06;2.87;;;2.67;;
19183;SDS011;9724;51.194;6.856;2022-07-23T14:53:34;3.27;;;2.43;;
19183;SDS011;9724;51.194;6.856;2022-07-23T14:56:03;3.20;;;2.70;;
19183;SDS011;9724;51.194;6.856;2022-07-23T14:58:32;2.80;;;2.60;;
19183;SDS011;9724;51.194;6.856;2022-07-23T15:01:03;3.00;;;2.80;;
19183;SDS011;9724;51.194;6.856;2022-07-23T15:03:31;3.20;;;2.40;;
19183;SDS011;9724;51.194;6.856;2022-07-23T15:06:18;2.67;;;2.13;;